sensor_id;sensor_type;location;lat;lon;timestamp;P1;durP1;ratioP1;P2;durP2;ratioP2
34471;SDS011;20710;49.976;19.836;2022-12-18T00:02:28;92.03;;;30.50;;
34471;SDS011;20710;49.976;19.836;2022-12-18T00:08:32;94.57;;;30.70;;
34471;SDS011;20710;49.976;19.836;2022-12-18T00:14:39;102.27;;;32.53;;
34471;SDS011;20710;49.976;19.836;2022-12-18T00:20:44;102.45;;;34.78;;
34471;SDS011;20710;49.976;19.836;2022-12-18T00:26:54;102.73;;;33.30;;
34471;SDS011;20710;49.976;19.836;2022-12-18T00:32:59;108.07;;;33.87;;
34471;SDS011;20710;49.976;19.836;2022-12-18T00:39:03;96.30;;;32.13;;
34471;SDS011;20710;49.976;19.836;2022-12-18T00:45:09;103.57;;;33.83;;
34471;SDS011;20710;49.976;19.836;2022-12-18T00:51:17;98.17;;;32.23;;
34471;SDS011;20710;49.976;19.836;2022-12-18T00:57:33;96.83;;;31.73;;
34471;SDS011;20710;49.976;19.836;2022-12-18T01:03:37;92.43;;;30.63;;
34471;SDS011;20710;49.976;19.836;2022-12-18T01:16:01;92.27;;;32.53;;
34471;SDS011;20710;49.976;19.836;2022-12-18T01:22:06;93.37;;;32.33;;
34471;SDS011;20710;49.976;19.836;2022-12-18T01:28:34;89.37;;;31.70;;
34471;SDS011;20710;49.976;19.836;2022-12-18T01:34:30;99.40;;;32.37;;
34471;SDS011;20710;49.976;19.836;2022-12-18T01:40:41;101.07;;;32.17;;
34471;SDS011;20710;49.976;19.836;2022-12-18T01:46:52;113.10;;;34.40;;
34471;SDS011;20710;49.976;19.836;2022-12-18T01:59:18;100.70;;;34.37;;
34471;SDS011;20710;49.976;19.836;2022-12-18T02:12:27;101.03;;;32.80;;
34471;SDS011;20710;49.976;19.836;2022-12-18T02:32:47;97.13;;;32.47;;
34471;SDS011;20710;49.976;19.836;2022-12-18T02:45:56;82.17;;;32.23;;
34471;SDS011;20710;49.976;19.836;2022-12-18T02:59:18;98.73;;;33.47;;
34471;SDS011;20710;49.976;19.836;2022-12-18T03:25:40;93.67;;;29.50;;
34471;SDS011;20710;49.976;19.836;2022-12-18T03:31:53;91.40;;;32.27;;
34471;SDS011;20710;49.976;19.836;2022-12-18T03:38:09;91.90;;;31.70;;
34471;SDS011;20710;49.976;19.836;2022-12-18T03:51:03;91.97;;;32.43;;
34471;SDS011;20710;49.976;19.836;2022-12-18T03:57:12;93.13;;;31.03;;
34471;SDS011;20710;49.976;19.836;2022-12-18T04:03:28;86.23;;;31.67;;
34471;SDS011;20710;49.976;19.836;2022-12-18T04:09:51;103.13;;;34.40;;
34471;SDS011;20710;49.976;19.836;2022-12-18T04:39:27;83.03;;;28.27;;
34471;SDS011;20710;49.976;19.836;2022-12-18T04:46:36;83.63;;;28.87;;
34471;SDS011;20710;49.976;19.836;2022-12-18T04:52:59;87.43;;;29.03;;
34471;SDS011;20710;49.976;19.836;2022-12-18T04:59:09;81.37;;;27.80;;
34471;SDS011;20710;49.976;19.836;2022-12-18T05:05:41;82.47;;;28.83;;
34471;SDS011;20710;49.976;19.836;2022-12-18T05:11:42;94.33;;;30.17;;
34471;SDS011;20710;49.976;19.836;2022-12-18T05:17:44;86.37;;;28.50;;
34471;SDS011;20710;49.976;19.836;2022-12-18T05:23:45;86.83;;;29.93;;
34471;SDS011;20710;49.976;19.836;2022-12-18T05:29:47;97.57;;;31.87;;
34471;SDS011;20710;49.976;19.836;2022-12-18T05:35:52;95.60;;;30.50;;
34471;SDS011;20710;49.976;19.836;2022-12-18T05:41:55;85.33;;;29.97;;
34471;SDS011;20710;49.976;19.836;2022-12-18T05:47:57;92.67;;;29.97;;
34471;SDS011;20710;49.976;19.836;2022-12-18T05:53:58;83.47;;;28.10;;
34471;SDS011;20710;49.976;19.836;2022-12-18T05:59:59;90.80;;;30.87;;
34471;SDS011;20710;49.976;19.836;2022-12-18T06:06:01;92.27;;;30.73;;
34471;SDS011;20710;49.976;19.836;2022-12-18T06:12:06;93.47;;;31.57;;
34471;SDS011;20710;49.976;19.836;2022-12-18T06:18:08;104.63;;;31.60;;
34471;SDS011;20710;49.976;19.836;2022-12-18T06:24:10;93.53;;;32.00;;
34471;SDS011;20710;49.976;19.836;2022-12-18T06:30:12;95.53;;;31.60;;
34471;SDS011;20710;49.976;19.836;2022-12-18T06:36:14;97.00;;;33.90;;
34471;SDS011;20710;49.976;19.836;2022-12-18T06:42:17;103.77;;;33.10;;
34471;SDS011;20710;49.976;19.836;2022-12-18T06:48:19;94.77;;;33.93;;
34471;SDS011;20710;49.976;19.836;2022-12-18T06:54:21;104.73;;;33.23;;
34471;SDS011;20710;49.976;19.836;2022-12-18T07:00:22;93.43;;;32.60;;
34471;SDS011;20710;49.976;19.836;2022-12-18T07:06:25;89.13;;;30.53;;
34471;SDS011;20710;49.976;19.836;2022-12-18T07:12:27;106.30;;;34.73;;
34471;SDS011;20710;49.976;19.836;2022-12-18T07:18:28;107.00;;;35.30;;
34471;SDS011;20710;49.976;19.836;2022-12-18T07:24:32;97.17;;;35.47;;
34471;SDS011;20710;49.976;19.836;2022-12-18T07:30:36;98.17;;;35.17;;
34471;SDS011;20710;49.976;19.836;2022-12-18T07:36:39;94.87;;;33.23;;
34471;SDS011;20710;49.976;19.836;2022-12-18T07:42:40;100.67;;;32.40;;
34471;SDS011;20710;49.976;19.836;2022-12-18T07:48:44;89.47;;;32.83;;
34471;SDS011;20710;49.976;19.836;2022-12-18T07:54:46;93.83;;;33.50;;
34471;SDS011;20710;49.976;19.836;2022-12-18T08:00:50;88.20;;;34.47;;
34471;SDS011;20710;49.976;19.836;2022-12-18T08:06:53;104.13;;;38.20;;
34471;SDS011;20710;49.976;19.836;2022-12-18T08:12:54;93.00;;;33.70;;
34471;SDS011;20710;49.976;19.836;2022-12-18T08:18:56;91.40;;;31.20;;
34471;SDS011;20710;49.976;19.836;2022-12-18T08:24:57;102.53;;;31.93;;
34471;SDS011;20710;49.976;19.836;2022-12-18T08:30:59;98.30;;;31.20;;
34471;SDS011;20710;49.976;19.836;2022-12-18T08:37:00;86.87;;;32.03;;
34471;SDS011;20710;49.976;19.836;2022-12-18T08:43:02;95.90;;;34.27;;
34471;SDS011;20710;49.976;19.836;2022-12-18T08:49:22;99.93;;;32.97;;
34471;SDS011;20710;49.976;19.836;2022-12-18T08:55:24;100.87;;;35.97;;
34471;SDS011;20710;49.976;19.836;2022-12-18T09:01:25;93.33;;;35.27;;
34471;SDS011;20710;49.976;19.836;2022-12-18T09:07:27;100.53;;;35.87;;
34471;SDS011;20710;49.976;19.836;2022-12-18T09:13:28;106.30;;;35.80;;
34471;SDS011;20710;49.976;19.836;2022-12-18T09:19:30;105.50;;;35.73;;
34471;SDS011;20710;49.976;19.836;2022-12-18T09:25:31;96.10;;;35.87;;
34471;SDS011;20710;49.976;19.836;2022-12-18T09:31:36;107.47;;;35.90;;
34471;SDS011;20710;49.976;19.836;2022-12-18T09:37:39;90.77;;;35.50;;
34471;SDS011;20710;49.976;19.836;2022-12-18T09:43:47;96.83;;;35.70;;
34471;SDS011;20710;49.976;19.836;2022-12-18T09:49:56;93.87;;;34.73;;
34471;SDS011;20710;49.976;19.836;2022-12-18T09:56:03;92.20;;;34.20;;
34471;SDS011;20710;49.976;19.836;2022-12-18T10:02:23;91.20;;;33.73;;
34471;SDS011;20710;49.976;19.836;2022-12-18T10:28:13;97.22;;;37.25;;
34471;SDS011;20710;49.976;19.836;2022-12-18T10:34:17;96.15;;;37.35;;
34471;SDS011;20710;49.976;19.836;2022-12-18T10:40:19;87.15;;;33.63;;
34471;SDS011;20710;49.976;19.836;2022-12-18T10:46:21;89.92;;;33.83;;
34471;SDS011;20710;49.976;19.836;2022-12-18T10:52:24;89.25;;;36.35;;
34471;SDS011;20710;49.976;19.836;2022-12-18T10:58:31;94.07;;;36.10;;
34471;SDS011;20710;49.976;19.836;2022-12-18T11:04:35;85.07;;;33.83;;
34471;SDS011;20710;49.976;19.836;2022-12-18T11:10:41;88.23;;;34.50;;
34471;SDS011;20710;49.976;19.836;2022-12-18T11:16:47;80.53;;;31.42;;
34471;SDS011;20710;49.976;19.836;2022-12-18T11:22:54;85.10;;;31.73;;
34471;SDS011;20710;49.976;19.836;2022-12-18T11:29:09;92.90;;;34.08;;
34471;SDS011;20710;49.976;19.836;2022-12-18T11:35:18;81.05;;;32.78;;
34471;SDS011;20710;49.976;19.836;2022-12-18T11:41:39;78.85;;;31.37;;
34471;SDS011;20710;49.976;19.836;2022-12-18T11:48:14;95.20;;;34.95;;
34471;SDS011;20710;49.976;19.836;2022-12-18T11:54:23;126.80;;;45.05;;
34471;SDS011;20710;49.976;19.836;2022-12-18T12:00:25;100.20;;;35.80;;
34471;SDS011;20710;49.976;19.836;2022-12-18T12:13:06;77.65;;;31.00;;
34471;SDS011;20710;49.976;19.836;2022-12-18T12:32:12;65.03;;;22.52;;
34471;SDS011;20710;49.976;19.836;2022-12-18T12:38:34;44.83;;;16.73;;
34471;SDS011;20710;49.976;19.836;2022-12-18T12:44:49;47.17;;;17.40;;
34471;SDS011;20710;49.976;19.836;2022-12-18T12:50:50;47.38;;;16.85;;
34471;SDS011;20710;49.976;19.836;2022-12-18T12:57:06;56.15;;;21.30;;
34471;SDS011;20710;49.976;19.836;2022-12-18T13:03:18;63.95;;;25.72;;
34471;SDS011;20710;49.976;19.836;2022-12-18T13:10:12;63.20;;;24.30;;
34471;SDS011;20710;49.976;19.836;2022-12-18T13:16:04;67.03;;;24.85;;
34471;SDS011;20710;49.976;19.836;2022-12-18T13:41:23;66.83;;;24.93;;
34471;SDS011;20710;49.976;19.836;2022-12-18T13:47:35;79.45;;;29.82;;
34471;SDS011;20710;49.976;19.836;2022-12-18T13:53:49;79.93;;;28.83;;
34471;SDS011;20710;49.976;19.836;2022-12-18T13:59:54;79.07;;;28.23;;
34471;SDS011;20710;49.976;19.836;2022-12-18T14:05:58;83.63;;;32.30;;
34471;SDS011;20710;49.976;19.836;2022-12-18T14:12:05;97.97;;;36.10;;
34471;SDS011;20710;49.976;19.836;2022-12-18T14:25:19;87.43;;;31.90;;
34471;SDS011;20710;49.976;19.836;2022-12-18T14:31:28;87.23;;;35.30;;
34471;SDS011;20710;49.976;19.836;2022-12-18T14:37:33;91.20;;;34.83;;
34471;SDS011;20710;49.976;19.836;2022-12-18T14:43:36;101.60;;;38.30;;
34471;SDS011;20710;49.976;19.836;2022-12-18T14:49:39;98.67;;;39.20;;
34471;SDS011;20710;49.976;19.836;2022-12-18T14:55:45;104.93;;;41.93;;
34471;SDS011;20710;49.976;19.836;2022-12-18T15:01:59;120.17;;;49.57;;
34471;SDS011;20710;49.976;19.836;2022-12-18T15:08:30;117.43;;;45.40;;
34471;SDS011;20710;49.976;19.836;2022-12-18T15:14:41;117.50;;;48.13;;
34471;SDS011;20710;49.976;19.836;2022-12-18T15:26:56;112.97;;;43.90;;
34471;SDS011;20710;49.976;19.836;2022-12-18T15:33:22;118.00;;;41.70;;
34471;SDS011;20710;49.976;19.836;2022-12-18T15:39:28;112.93;;;44.37;;
34471;SDS011;20710;49.976;19.836;2022-12-18T15:45:30;110.97;;;44.73;;
34471;SDS011;20710;49.976;19.836;2022-12-18T15:51:35;114.67;;;44.13;;
34471;SDS011;20710;49.976;19.836;2022-12-18T15:57:38;113.60;;;45.63;;
34471;SDS011;20710;49.976;19.836;2022-12-18T16:03:39;117.73;;;45.67;;
34471;SDS011;20710;49.976;19.836;2022-12-18T16:09:41;115.73;;;45.40;;
34471;SDS011;20710;49.976;19.836;2022-12-18T16:15:45;124.30;;;47.10;;
34471;SDS011;20710;49.976;19.836;2022-12-18T16:21:46;122.43;;;48.17;;
34471;SDS011;20710;49.976;19.836;2022-12-18T16:27:52;132.67;;;51.83;;
34471;SDS011;20710;49.976;19.836;2022-12-18T16:34:12;116.03;;;46.07;;
34471;SDS011;20710;49.976;19.836;2022-12-18T16:40:23;121.57;;;50.40;;
34471;SDS011;20710;49.976;19.836;2022-12-18T16:46:32;132.53;;;52.60;;
34471;SDS011;20710;49.976;19.836;2022-12-18T16:52:39;128.20;;;51.07;;
34471;SDS011;20710;49.976;19.836;2022-12-18T16:58:41;128.27;;;49.10;;
34471;SDS011;20710;49.976;19.836;2022-12-18T17:04:43;131.13;;;53.57;;
34471;SDS011;20710;49.976;19.836;2022-12-18T17:10:45;139.67;;;52.83;;
34471;SDS011;20710;49.976;19.836;2022-12-18T17:16:47;129.53;;;49.87;;
34471;SDS011;20710;49.976;19.836;2022-12-18T17:22:49;128.90;;;50.73;;
34471;SDS011;20710;49.976;19.836;2022-12-18T17:28:51;145.13;;;54.17;;
34471;SDS011;20710;49.976;19.836;2022-12-18T17:34:53;137.03;;;53.80;;
34471;SDS011;20710;49.976;19.836;2022-12-18T17:40:58;144.07;;;51.40;;
34471;SDS011;20710;49.976;19.836;2022-12-18T17:47:02;137.90;;;50.60;;
34471;SDS011;20710;49.976;19.836;2022-12-18T17:53:05;138.37;;;51.53;;
34471;SDS011;20710;49.976;19.836;2022-12-18T17:59:06;149.80;;;54.73;;
34471;SDS011;20710;49.976;19.836;2022-12-18T18:05:08;140.83;;;53.67;;
34471;SDS011;20710;49.976;19.836;2022-12-18T18:11:13;144.50;;;56.60;;
34471;SDS011;20710;49.976;19.836;2022-12-18T18:17:36;108.92;;;44.23;;
34471;SDS011;20710;49.976;19.836;2022-12-18T18:23:38;156.07;;;59.03;;
34471;SDS011;20710;49.976;19.836;2022-12-18T18:29:39;139.93;;;52.40;;
34471;SDS011;20710;49.976;19.836;2022-12-18T18:35:41;137.23;;;50.13;;
34471;SDS011;20710;49.976;19.836;2022-12-18T18:41:43;138.97;;;48.17;;
34471;SDS011;20710;49.976;19.836;2022-12-18T18:47:46;141.13;;;54.00;;
34471;SDS011;20710;49.976;19.836;2022-12-18T18:53:49;130.13;;;51.73;;
34471;SDS011;20710;49.976;19.836;2022-12-18T18:59:53;168.40;;;57.57;;
34471;SDS011;20710;49.976;19.836;2022-12-18T19:05:56;144.97;;;52.83;;
34471;SDS011;20710;49.976;19.836;2022-12-18T19:18:50;132.23;;;47.67;;
34471;SDS011;20710;49.976;19.836;2022-12-18T19:25:07;146.20;;;54.93;;
34471;SDS011;20710;49.976;19.836;2022-12-18T19:31:10;149.67;;;51.17;;
34471;SDS011;20710;49.976;19.836;2022-12-18T19:37:23;158.60;;;55.57;;
34471;SDS011;20710;49.976;19.836;2022-12-18T19:50:09;136.77;;;52.47;;
34471;SDS011;20710;49.976;19.836;2022-12-18T19:56:16;150.40;;;56.17;;
34471;SDS011;20710;49.976;19.836;2022-12-18T20:02:23;168.47;;;62.23;;
34471;SDS011;20710;49.976;19.836;2022-12-18T20:08:28;172.85;;;67.12;;
34471;SDS011;20710;49.976;19.836;2022-12-18T20:21:36;181.07;;;65.47;;
34471;SDS011;20710;49.976;19.836;2022-12-18T20:28:04;184.43;;;67.97;;
34471;SDS011;20710;49.976;19.836;2022-12-18T20:34:06;183.73;;;64.27;;
34471;SDS011;20710;49.976;19.836;2022-12-18T20:40:23;204.00;;;67.17;;
34471;SDS011;20710;49.976;19.836;2022-12-18T20:52:56;211.80;;;72.13;;
34471;SDS011;20710;49.976;19.836;2022-12-18T20:59:03;193.77;;;63.37;;
34471;SDS011;20710;49.976;19.836;2022-12-18T21:58:48;151.03;;;52.07;;
34471;SDS011;20710;49.976;19.836;2022-12-18T22:12:35;165.80;;;58.30;;
34471;SDS011;20710;49.976;19.836;2022-12-18T22:18:45;156.03;;;54.73;;
34471;SDS011;20710;49.976;19.836;2022-12-18T22:24:46;207.67;;;71.67;;
34471;SDS011;20710;49.976;19.836;2022-12-18T22:30:48;191.00;;;64.93;;
34471;SDS011;20710;49.976;19.836;2022-12-18T22:36:49;171.00;;;52.97;;
34471;SDS011;20710;49.976;19.836;2022-12-18T22:43:17;147.33;;;50.73;;
34471;SDS011;20710;49.976;19.836;2022-12-18T22:49:19;139.15;;;50.98;;
34471;SDS011;20710;49.976;19.836;2022-12-18T22:55:22;154.70;;;53.90;;
34471;SDS011;20710;49.976;19.836;2022-12-18T23:01:24;157.67;;;53.50;;
34471;SDS011;20710;49.976;19.836;2022-12-18T23:07:30;154.12;;;51.13;;
34471;SDS011;20710;49.976;19.836;2022-12-18T23:13:36;153.40;;;52.00;;
34471;SDS011;20710;49.976;19.836;2022-12-18T23:19:35;144.27;;;47.17;;
34471;SDS011;20710;49.976;19.836;2022-12-18T23:25:37;189.43;;;59.93;;
34471;SDS011;20710;49.976;19.836;2022-12-18T23:31:38;171.27;;;59.80;;
34471;SDS011;20710;49.976;19.836;2022-12-18T23:37:40;161.83;;;55.87;;
34471;SDS011;20710;49.976;19.836;2022-12-18T23:43:41;190.20;;;64.20;;
34471;SDS011;20710;49.976;19.836;2022-12-18T23:49:45;287.87;;;99.37;;
34471;SDS011;20710;49.976;19.836;2022-12-18T23:55:46;212.60;;;80.30;;
